createdAt,value
2018-08-28T00:00:14.328Z,16.24
2018-08-28T00:01:14.283Z,16.21
2018-08-28T00:02:14.274Z,16.31
2018-08-28T00:03:14.187Z,16.28
2018-08-28T00:04:14.143Z,16.21
2018-08-28T00:05:14.185Z,16.24
2018-08-28T00:06:14.047Z,16.23
2018-08-28T00:07:14.000Z,16.13
2018-08-28T00:08:13.950Z,16.12
2018-08-28T00:09:13.905Z,16.20
2018-08-28T00:10:13.892Z,16.01
2018-08-28T00:11:13.810Z,16.08
2018-08-28T00:12:13.768Z,16.01
2018-08-28T00:13:13.718Z,16.08
2018-08-28T00:14:13.673Z,16.00
2018-08-28T00:15:13.652Z,15.95
2018-08-28T00:16:13.576Z,15.94
2018-08-28T00:17:13.644Z,15.91
2018-08-28T00:18:13.481Z,15.83
2018-08-28T00:19:13.440Z,15.82
2018-08-28T00:20:13.388Z,15.82
2018-08-28T00:21:13.371Z,15.82
2018-08-28T00:22:13.325Z,15.75
2018-08-28T00:23:13.277Z,15.76
2018-08-28T00:24:13.199Z,15.76
2018-08-28T00:25:13.150Z,15.73
2018-08-28T00:26:13.103Z,15.77
2018-08-28T00:27:13.057Z,15.70
2018-08-28T00:28:13.039Z,15.64
2018-08-28T00:29:12.964Z,15.67
2018-08-28T00:30:12.914Z,15.58
2018-08-28T00:31:12.870Z,15.55
2018-08-28T00:32:12.864Z,15.52
2018-08-28T00:33:12.801Z,15.54
2018-08-28T00:34:12.730Z,15.57
2018-08-28T00:35:12.678Z,15.43
2018-08-28T00:36:12.632Z,15.51
2018-08-28T00:37:12.582Z,15.42
2018-08-28T00:38:12.568Z,15.36
2018-08-28T00:39:12.488Z,15.37
2018-08-28T00:40:12.441Z,15.40
2018-08-28T00:41:12.394Z,15.33
2018-08-28T00:42:12.350Z,15.28
2018-08-28T00:43:12.331Z,15.28
2018-08-28T00:44:12.292Z,15.17
2018-08-28T00:45:12.204Z,15.29
2018-08-28T00:46:12.158Z,15.25
2018-08-28T00:47:12.108Z,15.24
2018-08-28T00:48:12.060Z,15.18
2018-08-28T00:49:12.047Z,15.22
2018-08-28T00:50:11.967Z,15.21
2018-08-28T00:51:11.921Z,15.21
2018-08-28T00:52:11.875Z,15.14
2018-08-28T00:53:11.824Z,15.18
2018-08-28T00:54:11.812Z,15.15
2018-08-28T00:55:11.734Z,15.18
2018-08-28T00:56:11.684Z,15.17
2018-08-28T00:57:11.633Z,15.17
2018-08-28T00:58:11.589Z,15.04
2018-08-28T00:59:11.571Z,15.11
2018-08-28T01:00:11.492Z,15.06
2018-08-28T01:01:11.443Z,15.06
2018-08-28T01:02:11.396Z,15.06
2018-08-28T01:03:11.350Z,15.06
2018-08-28T01:04:11.336Z,15.00
2018-08-28T01:05:11.297Z,15.03
2018-08-28T01:06:11.208Z,15.04
2018-08-28T01:07:11.161Z,14.99
2018-08-28T01:08:11.108Z,14.97
2018-08-28T01:09:11.094Z,15.00
2018-08-28T01:10:11.038Z,15.07
2018-08-28T01:11:10.966Z,14.91
2018-08-28T01:12:10.921Z,14.97
2018-08-28T01:13:10.871Z,14.92
2018-08-28T01:14:10.823Z,14.92
2018-08-28T01:15:10.809Z,14.72
2018-08-28T01:16:10.754Z,14.85
2018-08-28T01:17:10.680Z,14.70
2018-08-28T01:18:10.634Z,14.63
2018-08-28T01:19:10.588Z,14.62
2018-08-28T01:20:10.541Z,14.58
2018-08-28T01:21:10.523Z,14.59
2018-08-28T01:22:10.443Z,14.59
2018-08-28T01:23:10.430Z,14.55
2018-08-28T01:24:10.348Z,14.47
2018-08-28T01:25:10.334Z,14.53
2018-08-28T01:26:10.250Z,14.51
2018-08-28T01:27:10.206Z,14.50
2018-08-28T01:28:10.154Z,14.51
2018-08-28T01:29:10.106Z,14.50
2018-08-28T01:30:10.094Z,14.51
2018-08-28T01:31:10.010Z,14.54
2018-08-28T01:32:09.964Z,14.37
2018-08-28T01:33:09.949Z,14.37
2018-08-28T01:34:09.870Z,14.41
2018-08-28T01:35:09.818Z,14.43
2018-08-28T01:36:09.806Z,14.35
2018-08-28T01:37:09.785Z,14.33
2018-08-28T01:38:09.707Z,14.32
2018-08-28T01:39:09.628Z,14.35
2018-08-28T01:40:09.579Z,14.28
2018-08-28T01:41:09.531Z,14.28
2018-08-28T01:42:09.484Z,14.20
2018-08-28T01:43:09.466Z,14.28
2018-08-28T01:44:09.387Z,14.14
2018-08-28T01:45:09.342Z,14.18
2018-08-28T01:46:09.333Z,14.15
2018-08-28T01:47:09.242Z,14.12
2018-08-28T01:48:09.198Z,14.07
2018-08-28T01:49:09.147Z,14.08
2018-08-28T01:50:09.097Z,14.03
2018-08-28T01:51:09.081Z,14.08
2018-08-28T01:52:09.002Z,13.93
2018-08-28T01:53:08.952Z,14.00
2018-08-28T01:54:08.936Z,14.00
2018-08-28T01:55:08.856Z,13.99
2018-08-28T01:56:08.808Z,13.92
2018-08-28T01:57:08.764Z,13.96
2018-08-28T01:58:08.712Z,13.83
2018-08-28T01:59:08.699Z,13.90
2018-08-28T02:00:08.614Z,13.81
2018-08-28T02:01:08.565Z,13.75
2018-08-28T02:02:08.520Z,13.72
2018-08-28T02:03:08.470Z,13.56
2018-08-28T02:04:08.455Z,13.59
2018-08-28T02:05:08.376Z,13.59
2018-08-28T02:06:08.332Z,13.56
2018-08-28T02:07:08.279Z,13.54
2018-08-28T02:08:08.260Z,13.49
2018-08-28T02:09:08.181Z,13.44
2018-08-28T02:10:08.173Z,13.39
2018-08-28T02:11:08.084Z,13.38
2018-08-28T02:12:08.035Z,13.42
2018-08-28T02:13:08.018Z,13.37
2018-08-28T02:14:07.939Z,13.30
2018-08-28T02:15:07.921Z,13.19
2018-08-28T02:16:07.841Z,13.22
2018-08-28T02:17:07.794Z,13.25
2018-08-28T02:18:07.745Z,13.23
2018-08-28T02:19:07.700Z,13.12
2018-08-28T02:20:07.679Z,13.13
2018-08-28T02:21:07.598Z,13.08
2018-08-28T02:22:07.549Z,13.01
2018-08-28T02:23:07.499Z,13.12
2018-08-28T02:24:07.482Z,13.08
2018-08-28T02:25:07.405Z,13.05
2018-08-28T02:26:07.356Z,13.09
2018-08-28T02:27:07.338Z,13.09
2018-08-28T02:28:07.259Z,12.95
2018-08-28T02:29:07.239Z,12.95
2018-08-28T02:30:07.166Z,12.97
2018-08-28T02:31:07.143Z,12.94
2018-08-28T02:32:07.061Z,12.91
2018-08-28T02:33:07.013Z,12.87
2018-08-28T02:34:06.967Z,12.98
2018-08-28T02:35:06.967Z,12.87
2018-08-28T02:36:06.866Z,12.85
2018-08-28T02:37:06.820Z,12.83
2018-08-28T02:38:06.774Z,12.83
2018-08-28T02:39:06.719Z,12.80
2018-08-28T02:40:06.703Z,12.83
2018-08-28T02:41:06.624Z,12.73
2018-08-28T02:42:06.613Z,12.76
2018-08-28T02:43:06.523Z,12.76
2018-08-28T02:44:06.475Z,12.72
2018-08-28T02:45:06.428Z,12.61
2018-08-28T02:46:06.377Z,12.64
2018-08-28T02:47:06.367Z,12.55
2018-08-28T02:48:06.279Z,12.45
2018-08-28T02:49:06.230Z,12.53
2018-08-28T02:50:06.181Z,12.58
2018-08-28T02:51:06.132Z,12.42
2018-08-28T02:52:06.112Z,12.42
2018-08-28T02:53:06.035Z,12.57
2018-08-28T02:54:06.041Z,12.55
2018-08-28T02:55:05.942Z,12.43
2018-08-28T02:56:05.940Z,12.47
2018-08-28T02:57:05.878Z,12.49
2018-08-28T02:58:05.791Z,12.43
2018-08-28T02:59:05.738Z,12.45
2018-08-28T03:00:05.690Z,12.46
2018-08-28T03:01:05.641Z,12.42
2018-08-28T03:02:05.642Z,12.31
2018-08-28T03:03:05.605Z,12.40
2018-08-28T03:04:05.491Z,12.32
2018-08-28T03:05:05.443Z,12.27
2018-08-28T03:06:05.394Z,12.29
2018-08-28T03:07:05.375Z,12.25
2018-08-28T03:08:05.330Z,12.31
2018-08-28T03:09:05.248Z,12.35
2018-08-28T03:10:05.198Z,12.25
2018-08-28T03:11:05.179Z,12.21
2018-08-28T03:12:05.137Z,12.28
2018-08-28T03:13:05.048Z,12.27
2018-08-28T03:14:04.998Z,12.31
2018-08-28T03:15:04.953Z,12.24
2018-08-28T03:16:05.011Z,12.28
2018-08-28T03:17:04.886Z,12.27
2018-08-28T03:18:04.802Z,12.37
2018-08-28T03:19:04.786Z,12.35
2018-08-28T03:20:04.738Z,12.24
2018-08-28T03:21:04.654Z,12.28
2018-08-28T03:22:04.637Z,12.32
2018-08-28T03:23:04.554Z,12.28
2018-08-28T03:24:04.505Z,12.18
2018-08-28T03:25:04.457Z,12.21
2018-08-28T03:26:04.448Z,12.25
2018-08-28T03:27:04.358Z,12.18
2018-08-28T03:28:04.308Z,12.15
2018-08-28T03:29:04.309Z,12.21
2018-08-28T03:30:04.211Z,12.20
2018-08-28T03:31:04.193Z,12.21
2018-08-28T03:32:04.109Z,12.20
2018-08-28T03:33:04.061Z,12.12
2018-08-28T03:34:04.042Z,12.21
2018-08-28T03:35:03.967Z,12.22
2018-08-28T03:36:03.915Z,12.21
2018-08-28T03:37:03.864Z,12.17
2018-08-28T03:38:03.814Z,12.17
2018-08-28T03:39:03.817Z,12.21
2018-08-28T03:40:03.712Z,12.20
2018-08-28T03:41:03.665Z,12.12
2018-08-28T03:42:03.617Z,12.04
2018-08-28T03:43:03.565Z,12.02
2018-08-28T03:44:03.549Z,12.02
2018-08-28T03:45:03.499Z,11.94
2018-08-28T03:46:03.415Z,11.87
2018-08-28T03:47:03.398Z,11.86
2018-08-28T03:48:03.317Z,11.80
2018-08-28T03:49:03.269Z,11.75
2018-08-28T03:50:03.228Z,11.68
2018-08-28T03:51:03.199Z,11.70
2018-08-28T03:52:03.118Z,11.59
2018-08-28T03:53:03.070Z,11.54
2018-08-28T03:54:03.020Z,11.52
2018-08-28T03:55:03.014Z,11.51
2018-08-28T03:56:02.917Z,11.60
2018-08-28T03:57:02.871Z,11.57
2018-08-28T03:58:02.821Z,11.55
2018-08-28T03:59:02.769Z,11.60
2018-08-28T04:00:02.755Z,11.59
2018-08-28T04:01:02.671Z,11.60
2018-08-28T04:02:02.669Z,11.62
2018-08-28T04:03:02.570Z,11.47
2018-08-28T04:04:02.525Z,11.65
2018-08-28T04:05:02.470Z,11.51
2018-08-28T04:06:02.428Z,11.55
2018-08-28T04:07:02.403Z,11.47
2018-08-28T04:08:02.324Z,11.40
2018-08-28T04:09:02.274Z,11.48
2018-08-28T04:10:02.223Z,11.47
2018-08-28T04:11:02.177Z,11.48
2018-08-28T04:12:02.154Z,11.43
2018-08-28T04:13:02.071Z,11.43
2018-08-28T04:14:02.023Z,11.45
2018-08-28T04:15:02.014Z,11.43
2018-08-28T04:16:01.924Z,11.47
2018-08-28T04:17:01.946Z,11.44
2018-08-28T04:18:01.825Z,11.44
2018-08-28T04:19:01.774Z,11.43
2018-08-28T04:20:01.763Z,11.40
2018-08-28T04:21:01.678Z,11.48
2018-08-28T04:22:01.627Z,11.47
2018-08-28T04:23:01.575Z,11.26
2018-08-28T04:24:01.526Z,11.32
2018-08-28T04:25:01.508Z,11.23
2018-08-28T04:26:01.429Z,11.19
2018-08-28T04:27:01.374Z,11.26
2018-08-28T04:28:01.325Z,11.22
2018-08-28T04:29:01.304Z,11.15
2018-08-28T04:30:01.263Z,11.18
2018-08-28T04:31:01.328Z,11.18
2018-08-28T04:32:01.126Z,11.11
2018-08-28T04:33:01.076Z,11.05
2018-08-28T04:34:01.025Z,11.15
2018-08-28T04:35:00.975Z,11.12
2018-08-28T04:36:00.955Z,11.12
2018-08-28T04:37:00.873Z,11.08
2018-08-28T04:38:00.822Z,11.08
2018-08-28T04:39:00.774Z,11.08
2018-08-28T04:40:00.755Z,11.08
2018-08-28T04:41:00.672Z,11.17
2018-08-28T04:42:00.677Z,11.14
2018-08-28T04:43:00.580Z,11.11
2018-08-28T04:44:00.522Z,11.00
2018-08-28T04:45:00.518Z,11.00
2018-08-28T04:46:00.426Z,10.97
2018-08-28T04:47:00.373Z,11.00
2018-08-28T04:48:00.323Z,10.92
2018-08-28T04:49:00.374Z,10.92
2018-08-28T04:50:00.255Z,10.96
2018-08-28T04:51:00.171Z,10.94
2018-08-28T04:52:00.122Z,10.93
2018-08-28T04:53:00.103Z,10.87
2018-08-28T04:54:00.061Z,10.97
2018-08-28T04:55:00.072Z,10.92
2018-08-28T04:55:59.922Z,10.96
2018-08-28T04:56:59.874Z,10.92
2018-08-28T04:57:59.821Z,10.92
2018-08-28T04:58:59.811Z,10.93
2018-08-28T04:59:59.721Z,10.86
2018-08-28T05:00:59.670Z,10.86
2018-08-28T05:01:59.621Z,10.87
2018-08-28T05:02:59.570Z,10.94
2018-08-28T05:03:59.549Z,10.87
2018-08-28T05:04:59.472Z,10.90
2018-08-28T05:05:59.451Z,10.81
2018-08-28T05:06:59.367Z,10.97
2018-08-28T05:07:59.365Z,10.90
2018-08-28T05:08:59.272Z,10.96
2018-08-28T05:09:59.215Z,10.94
2018-08-28T05:10:59.165Z,10.97
2018-08-28T05:11:59.120Z,10.92
2018-08-28T05:12:59.101Z,10.92
2018-08-28T05:13:59.017Z,10.94
2018-08-28T05:14:58.962Z,10.93
2018-08-28T05:15:58.997Z,10.96
2018-08-28T05:16:58.895Z,10.92
2018-08-28T05:17:58.814Z,10.93
2018-08-28T05:18:58.767Z,10.93
2018-08-28T05:19:58.713Z,10.90
2018-08-28T05:20:58.664Z,10.94
2018-08-28T05:21:58.645Z,10.94
2018-08-28T05:22:58.563Z,10.94
2018-08-28T05:23:58.549Z,10.97
2018-08-28T05:24:58.459Z,11.02
2018-08-28T05:25:58.411Z,11.12
2018-08-28T05:26:58.359Z,11.17
2018-08-28T05:27:58.343Z,11.14
2018-08-28T05:28:58.261Z,11.25
2018-08-28T05:29:58.209Z,11.19
2018-08-28T05:30:58.157Z,11.33
2018-08-28T05:31:58.108Z,11.29
2018-08-28T05:32:58.090Z,11.37
2018-08-28T05:33:58.039Z,11.44
2018-08-28T05:34:57.958Z,11.43
2018-08-28T05:35:57.908Z,11.44
2018-08-28T05:36:57.857Z,11.43
2018-08-28T05:37:57.811Z,11.50
2018-08-28T05:38:57.823Z,11.47
2018-08-28T05:39:57.706Z,11.50
2018-08-28T05:40:57.656Z,11.48
2018-08-28T05:41:57.609Z,11.48
2018-08-28T05:42:57.555Z,11.51
2018-08-28T05:43:57.544Z,11.59
2018-08-28T05:44:57.455Z,11.62
2018-08-28T05:45:57.404Z,11.59
2018-08-28T05:46:57.354Z,11.66
2018-08-28T05:47:57.303Z,11.70
2018-08-28T05:48:57.285Z,11.77
2018-08-28T05:49:57.204Z,11.80
2018-08-28T05:50:57.155Z,11.78
2018-08-28T05:51:57.149Z,11.81
2018-08-28T05:52:57.054Z,11.90
2018-08-28T05:53:57.004Z,11.97
2018-08-28T05:54:56.968Z,11.94
2018-08-28T05:55:56.905Z,12.02
2018-08-28T05:56:56.898Z,12.04
2018-08-28T05:57:56.802Z,12.09
2018-08-28T05:58:56.755Z,12.17
2018-08-28T05:59:56.703Z,12.13
2018-08-28T06:00:56.653Z,12.10
2018-08-28T06:01:56.643Z,12.18
2018-08-28T06:02:56.587Z,12.12
2018-08-28T06:03:56.501Z,12.25
2018-08-28T06:04:56.451Z,12.20
2018-08-28T06:05:56.403Z,12.28
2018-08-28T06:06:56.386Z,12.29
2018-08-28T06:07:56.302Z,12.43
2018-08-28T06:08:56.316Z,12.43
2018-08-28T06:09:56.209Z,12.40
2018-08-28T06:10:56.192Z,12.45
2018-08-28T06:11:56.102Z,12.50
2018-08-28T06:12:56.055Z,12.64
2018-08-28T06:13:56.012Z,12.67
2018-08-28T06:14:55.955Z,12.64
2018-08-28T06:15:55.939Z,12.62
2018-08-28T06:16:55.854Z,12.62
2018-08-28T06:17:55.805Z,12.62
2018-08-28T06:18:55.754Z,12.61
2018-08-28T06:19:55.706Z,12.61
2018-08-28T06:20:55.697Z,12.70
2018-08-28T06:21:55.608Z,12.79
2018-08-28T06:22:55.577Z,12.85
2018-08-28T06:23:55.507Z,12.94
2018-08-28T06:24:55.462Z,12.90
2018-08-28T06:25:55.443Z,12.95
2018-08-28T06:26:55.360Z,13.00
2018-08-28T06:27:55.308Z,12.93
2018-08-28T06:28:55.259Z,13.05
2018-08-28T06:29:55.214Z,13.04
2018-08-28T06:30:55.192Z,13.15
2018-08-28T06:31:55.112Z,13.22
2018-08-28T06:32:55.062Z,13.18
2018-08-28T06:33:55.019Z,13.30
2018-08-28T06:34:54.996Z,13.33
2018-08-28T06:35:54.949Z,13.35
2018-08-28T06:36:54.869Z,13.31
2018-08-28T06:37:54.816Z,13.33
2018-08-28T06:38:54.767Z,13.46
2018-08-28T06:39:54.718Z,13.52
2018-08-28T06:40:54.701Z,13.50
2018-08-28T06:41:54.621Z,13.59
2018-08-28T06:42:54.601Z,13.65
2018-08-28T06:43:54.601Z,13.60
2018-08-28T06:44:54.473Z,13.74
2018-08-28T06:45:54.423Z,13.68
2018-08-28T06:46:54.404Z,13.70
2018-08-28T06:47:54.329Z,13.77
2018-08-28T06:48:54.282Z,13.81
2018-08-28T06:49:54.228Z,13.87
2018-08-28T06:50:54.180Z,13.85
2018-08-28T06:51:54.161Z,14.00
2018-08-28T06:52:54.119Z,13.96
2018-08-28T06:53:54.062Z,14.00
2018-08-28T06:54:53.982Z,14.08
2018-08-28T06:55:53.933Z,14.10
2018-08-28T06:56:53.970Z,14.15
2018-08-28T06:57:53.869Z,14.25
2018-08-28T06:58:53.786Z,14.28
2018-08-28T06:59:53.741Z,14.30
2018-08-28T07:00:53.690Z,14.33
2018-08-28T07:01:53.644Z,14.40
2018-08-28T07:02:53.623Z,14.40
2018-08-28T07:03:53.583Z,14.37
2018-08-28T07:04:53.496Z,14.51
2018-08-28T07:05:53.448Z,14.53
2018-08-28T07:06:53.400Z,14.54
2018-08-28T07:07:53.425Z,14.58
2018-08-28T07:08:53.331Z,14.59
2018-08-28T07:09:53.251Z,14.66
2018-08-28T07:10:53.203Z,14.66
2018-08-28T07:11:53.160Z,14.78
2018-08-28T07:12:53.108Z,14.84
2018-08-28T07:13:53.091Z,14.77
2018-08-28T07:14:53.009Z,14.89
2018-08-28T07:15:52.963Z,14.88
2018-08-28T07:16:52.916Z,14.91
2018-08-28T07:17:52.868Z,15.03
2018-08-28T07:18:52.960Z,14.96
2018-08-28T07:19:52.819Z,15.07
2018-08-28T07:20:52.730Z,15.14
2018-08-28T07:21:52.673Z,15.17
2018-08-28T07:22:52.625Z,15.18
2018-08-28T07:23:52.616Z,15.22
2018-08-28T07:24:52.528Z,15.28
2018-08-28T07:25:52.563Z,15.19
2018-08-28T07:26:52.469Z,15.36
2018-08-28T07:27:52.384Z,15.42
2018-08-28T07:28:52.375Z,15.46
2018-08-28T07:29:52.289Z,15.57
2018-08-28T07:30:52.286Z,15.54
2018-08-28T07:31:52.261Z,15.47
2018-08-28T07:32:52.146Z,15.55
2018-08-28T07:33:52.102Z,15.64
2018-08-28T07:34:52.051Z,15.67
2018-08-28T07:35:52.036Z,15.68
2018-08-28T07:36:51.955Z,15.75
2018-08-28T07:37:51.908Z,15.80
2018-08-28T07:38:51.860Z,15.83
2018-08-28T07:39:51.818Z,15.92
2018-08-28T07:40:51.801Z,15.92
2018-08-28T07:41:51.717Z,15.98
2018-08-28T07:42:51.718Z,16.00
2018-08-28T07:43:51.622Z,16.16
2018-08-28T07:44:51.578Z,16.24
2018-08-28T07:45:51.530Z,16.26
2018-08-28T07:46:51.481Z,16.23
2018-08-28T07:47:51.465Z,16.26
2018-08-28T07:48:51.387Z,16.38
2018-08-28T07:49:51.338Z,16.39
2018-08-28T07:50:51.292Z,16.39
2018-08-28T07:51:51.245Z,16.46
2018-08-28T07:52:51.230Z,16.53
2018-08-28T07:53:51.189Z,16.60
2018-08-28T07:54:51.103Z,16.68
2018-08-28T07:55:51.103Z,16.83
2018-08-28T07:56:51.014Z,16.75
2018-08-28T07:57:50.965Z,16.90
2018-08-28T07:58:50.920Z,16.96
2018-08-28T07:59:50.874Z,16.97
2018-08-28T08:00:50.856Z,17.12
2018-08-28T08:01:50.776Z,17.31
2018-08-28T08:02:50.730Z,17.39
2018-08-28T08:03:50.725Z,17.42
2018-08-28T08:04:50.637Z,17.46
2018-08-28T08:05:50.591Z,17.45
2018-08-28T08:06:50.544Z,17.64
2018-08-28T08:07:50.498Z,17.90
2018-08-28T08:08:50.485Z,18.15
2018-08-28T08:09:50.440Z,18.11
2018-08-28T08:10:50.360Z,18.03
2018-08-28T08:11:50.321Z,18.22
2018-08-28T08:12:50.267Z,18.43
2018-08-28T08:13:50.219Z,18.73
2018-08-28T08:14:50.221Z,19.30
2018-08-28T08:15:50.130Z,19.99
2018-08-28T08:16:50.080Z,20.29
2018-08-28T08:17:50.041Z,21.05
2018-08-28T08:18:50.018Z,21.40
2018-08-28T08:19:49.999Z,21.89
2018-08-28T08:20:49.902Z,22.30
2018-08-28T08:21:49.858Z,22.65
2018-08-28T08:22:49.813Z,23.08
2018-08-28T08:23:49.767Z,23.48
2018-08-28T08:24:49.757Z,23.69
2018-08-28T08:25:49.681Z,23.99
2018-08-28T08:26:49.640Z,24.13
2018-08-28T08:27:49.624Z,24.54
2018-08-28T08:28:49.549Z,24.95
2018-08-28T08:29:49.535Z,25.14
2018-08-28T08:30:49.490Z,25.41
2018-08-28T08:31:49.421Z,25.51
2018-08-28T08:32:49.375Z,25.62
2018-08-28T08:33:49.362Z,25.68
2018-08-28T08:34:49.296Z,25.83
2018-08-28T08:35:49.250Z,26.15
2018-08-28T08:36:49.240Z,26.19
2018-08-28T08:37:49.162Z,26.40
2018-08-28T08:38:49.119Z,26.47
2018-08-28T08:39:49.086Z,26.52
2018-08-28T08:40:49.075Z,26.62
2018-08-28T08:41:48.999Z,26.89
2018-08-28T08:42:48.956Z,27.10
2018-08-28T08:43:48.913Z,27.27
2018-08-28T08:44:48.873Z,27.35
2018-08-28T08:45:48.893Z,27.36
2018-08-28T08:46:48.788Z,27.52
2018-08-28T08:47:48.751Z,27.58
2018-08-28T08:48:48.711Z,27.68
2018-08-28T08:49:48.669Z,28.04
2018-08-28T08:50:48.666Z,28.17
2018-08-28T08:51:48.587Z,27.96
2018-08-28T08:52:48.549Z,27.93
2018-08-28T08:53:48.508Z,28.00
2018-08-28T08:54:48.528Z,28.05
2018-08-28T08:55:48.467Z,28.02
2018-08-28T08:56:48.390Z,27.71
2018-08-28T08:57:48.352Z,27.64
2018-08-28T08:58:48.310Z,27.59
2018-08-28T08:59:48.268Z,27.49
2018-08-28T09:00:48.261Z,27.33
2018-08-28T09:01:48.230Z,27.37
2018-08-28T09:02:48.151Z,27.52
2018-08-28T09:03:48.111Z,27.33
2018-08-28T09:04:48.072Z,27.37
2018-08-28T09:05:48.033Z,27.27
2018-08-28T09:06:48.033Z,27.27
2018-08-28T09:07:47.954Z,27.33
2018-08-28T09:08:47.945Z,27.30
2018-08-28T09:09:47.877Z,27.47
2018-08-28T09:10:47.837Z,27.54
2018-08-28T09:11:47.796Z,27.42
2018-08-28T09:12:47.758Z,27.42
2018-08-28T09:13:47.750Z,27.49
2018-08-28T09:14:47.678Z,27.65
2018-08-28T09:15:47.678Z,27.71
2018-08-28T09:16:47.604Z,27.87
2018-08-28T09:17:47.560Z,27.90
2018-08-28T09:18:47.520Z,28.02
2018-08-28T09:19:47.482Z,28.08
2018-08-28T09:20:47.478Z,27.96
2018-08-28T09:21:47.406Z,27.95
2018-08-28T09:22:47.365Z,28.02
2018-08-28T09:23:47.326Z,28.12
2018-08-28T09:24:47.320Z,27.92
2018-08-28T09:25:47.281Z,28.10
2018-08-28T09:26:47.210Z,28.00
2018-08-28T09:27:47.174Z,27.95
2018-08-28T09:28:47.164Z,28.00
2018-08-28T09:29:47.092Z,27.90
2018-08-28T09:30:47.054Z,28.02
2018-08-28T09:31:47.086Z,27.96
2018-08-28T09:32:46.979Z,28.20
2018-08-28T09:33:46.972Z,28.39
2018-08-28T09:34:46.900Z,28.69
2018-08-28T09:35:46.862Z,28.74
2018-08-28T09:36:46.856Z,28.39
2018-08-28T09:37:46.785Z,27.93
2018-08-28T09:38:46.835Z,27.92
2018-08-28T09:39:46.711Z,27.96
2018-08-28T09:40:46.678Z,27.98
2018-08-28T09:41:46.632Z,27.96
2018-08-28T09:42:46.624Z,28.00
2018-08-28T09:43:46.566Z,27.98
2018-08-28T09:44:46.519Z,27.92
2018-08-28T09:45:46.477Z,28.00
2018-08-28T09:46:46.479Z,28.11
2018-08-28T09:47:46.401Z,28.00
2018-08-28T09:48:46.365Z,28.05
2018-08-28T09:49:46.357Z,28.05
2018-08-28T09:50:46.377Z,27.98
2018-08-28T09:51:46.282Z,28.07
2018-08-28T09:52:46.211Z,28.19
2018-08-28T09:53:46.173Z,28.33
2018-08-28T09:54:46.134Z,28.57
2018-08-28T09:55:46.099Z,28.70
2018-08-28T09:56:46.103Z,28.98
2018-08-28T09:57:46.052Z,29.07
2018-08-28T09:58:45.982Z,29.23
2018-08-28T09:59:45.985Z,29.04
2018-08-28T10:00:45.908Z,28.98
2018-08-28T10:01:45.868Z,29.13
2018-08-28T10:02:45.831Z,29.05
2018-08-28T10:03:45.791Z,29.05
2018-08-28T10:04:45.905Z,29.04
2018-08-28T10:05:45.718Z,28.97
2018-08-28T10:06:45.680Z,28.88
2018-08-28T10:07:45.697Z,28.76
2018-08-28T10:08:45.606Z,28.57
2018-08-28T10:09:45.569Z,28.54
2018-08-28T10:10:45.580Z,28.23
2018-08-28T10:11:45.490Z,28.37
2018-08-28T10:12:45.487Z,28.38
2018-08-28T10:13:45.416Z,28.27
2018-08-28T10:14:45.414Z,28.23
2018-08-28T10:15:45.342Z,28.26
2018-08-28T10:16:45.304Z,28.32
2018-08-28T10:17:45.267Z,28.02
2018-08-28T10:18:45.234Z,28.01
2018-08-28T10:19:45.223Z,28.14
2018-08-28T10:20:45.153Z,28.29
2018-08-28T10:21:45.155Z,28.45
2018-08-28T10:22:45.091Z,28.41
2018-08-28T10:23:45.044Z,28.38
2018-08-28T10:24:45.005Z,28.29
2018-08-28T10:25:45.018Z,28.20
2018-08-28T10:26:44.926Z,28.30
2018-08-28T10:27:44.920Z,28.39
2018-08-28T10:28:44.854Z,28.59
2018-08-28T10:29:44.830Z,28.52
2018-08-28T10:30:44.777Z,28.37
2018-08-28T10:31:44.739Z,28.39
2018-08-28T10:32:44.744Z,28.29
2018-08-28T10:33:44.669Z,28.32
2018-08-28T10:34:44.626Z,28.48
2018-08-28T10:35:44.628Z,28.72
2018-08-28T10:36:44.552Z,28.94
2018-08-28T10:37:44.517Z,29.02
2018-08-28T10:38:44.475Z,29.38
2018-08-28T10:39:44.473Z,29.73
2018-08-28T10:40:44.400Z,29.93
2018-08-28T10:41:44.403Z,29.86
2018-08-28T10:42:44.329Z,29.63
2018-08-28T10:43:44.289Z,29.71
2018-08-28T10:44:44.254Z,29.72
2018-08-28T10:45:44.220Z,29.78
2018-08-28T10:46:44.393Z,29.71
2018-08-28T10:47:44.143Z,29.56
2018-08-28T10:48:44.106Z,29.69
2018-08-28T10:49:44.097Z,29.50
2018-08-28T10:50:44.031Z,29.34
2018-08-28T10:51:43.992Z,29.07
2018-08-28T10:52:43.996Z,28.76
2018-08-28T10:53:43.918Z,28.66
2018-08-28T10:54:43.913Z,28.72
2018-08-28T10:55:43.844Z,28.26
2018-08-28T10:56:43.942Z,27.95
2018-08-28T10:57:43.771Z,27.98
2018-08-28T10:58:43.886Z,27.96
2018-08-28T10:59:43.694Z,27.96
2018-08-28T11:00:43.663Z,28.17
2018-08-28T11:01:43.659Z,28.74
2018-08-28T11:02:43.591Z,28.79
2018-08-28T11:03:43.544Z,28.59
2018-08-28T11:04:43.684Z,28.32
2018-08-28T11:05:43.480Z,28.11
2018-08-28T11:06:43.435Z,27.93
2018-08-28T11:07:43.428Z,27.78
2018-08-28T11:08:43.472Z,27.40
2018-08-28T11:09:43.325Z,27.40
2018-08-28T11:10:43.286Z,27.65
2018-08-28T11:11:43.255Z,27.86
2018-08-28T11:12:43.244Z,27.74
2018-08-28T11:13:43.173Z,27.87
2018-08-28T11:14:43.140Z,28.19
2018-08-28T11:15:43.132Z,28.57
2018-08-28T11:16:43.063Z,28.96
2018-08-28T11:17:43.025Z,29.23
2018-08-28T11:18:42.986Z,29.57
2018-08-28T11:19:42.980Z,29.93
2018-08-28T11:20:42.911Z,30.34
2018-08-28T11:21:42.875Z,30.54
2018-08-28T11:22:42.871Z,30.63
2018-08-28T11:23:42.836Z,30.51
2018-08-28T11:24:42.794Z,30.51
2018-08-28T11:25:42.732Z,30.37
2018-08-28T11:26:42.693Z,30.43
2018-08-28T11:27:42.653Z,30.46
2018-08-28T11:28:42.616Z,30.63
2018-08-28T11:29:42.610Z,30.59
2018-08-28T11:30:42.542Z,30.40
2018-08-28T11:31:42.508Z,29.88
2018-08-28T11:32:42.479Z,29.36
2018-08-28T11:33:42.433Z,28.81
2018-08-28T11:34:42.426Z,28.78
2018-08-28T11:35:42.375Z,28.75
2018-08-28T11:36:42.325Z,28.85
2018-08-28T11:37:42.288Z,29.13
2018-08-28T11:38:42.280Z,29.24
2018-08-28T11:39:42.209Z,29.26
2018-08-28T11:40:42.179Z,29.61
2018-08-28T11:41:42.172Z,29.72
2018-08-28T11:42:42.105Z,29.19
2018-08-28T11:43:42.065Z,28.37
2018-08-28T11:44:42.028Z,27.86
2018-08-28T11:45:42.040Z,27.36
2018-08-28T11:46:41.953Z,27.15
2018-08-28T11:47:41.918Z,26.95
2018-08-28T11:48:41.880Z,26.89
2018-08-28T11:49:41.844Z,26.78
2018-08-28T11:50:41.841Z,26.80
2018-08-28T11:51:41.769Z,26.89
2018-08-28T11:52:41.747Z,26.99
2018-08-28T11:53:41.727Z,27.20
2018-08-28T11:54:41.658Z,27.30
2018-08-28T11:55:41.624Z,27.20
2018-08-28T11:56:41.617Z,27.11
2018-08-28T11:57:41.545Z,27.02
2018-08-28T11:58:41.516Z,27.11
2018-08-28T11:59:41.470Z,27.33
2018-08-28T12:00:41.439Z,27.71
2018-08-28T12:01:41.438Z,27.74
2018-08-28T12:02:41.358Z,27.49
2018-08-28T12:03:41.323Z,27.45
2018-08-28T12:04:41.284Z,27.21
2018-08-28T12:05:41.246Z,27.17
2018-08-28T12:06:41.262Z,26.84
2018-08-28T12:07:41.183Z,26.68
2018-08-28T12:08:41.135Z,26.60
2018-08-28T12:09:41.138Z,26.36
2018-08-28T12:10:41.060Z,26.36
2018-08-28T12:11:41.021Z,26.43
2018-08-28T12:12:40.983Z,26.43
2018-08-28T12:13:40.944Z,26.52
2018-08-28T12:14:40.946Z,26.55
2018-08-28T12:15:40.870Z,26.85
2018-08-28T12:16:40.833Z,26.36
2018-08-28T12:17:40.798Z,26.02
2018-08-28T12:18:40.756Z,25.84
2018-08-28T12:19:40.757Z,25.78
2018-08-28T12:20:40.738Z,26.37
2018-08-28T12:21:40.641Z,26.78
2018-08-28T12:22:40.604Z,26.89
2018-08-28T12:23:40.567Z,26.77
2018-08-28T12:24:40.571Z,26.51
2018-08-28T12:25:40.491Z,26.43
2018-08-28T12:26:40.513Z,26.71
2018-08-28T12:27:40.414Z,27.14
2018-08-28T12:28:40.377Z,27.26
2018-08-28T12:29:40.414Z,27.85
2018-08-28T12:30:40.302Z,28.29
2018-08-28T12:31:40.263Z,28.82
2018-08-28T12:32:40.270Z,29.13
2018-08-28T12:33:40.190Z,29.12
2018-08-28T12:34:40.149Z,29.05
2018-08-28T12:35:40.110Z,29.16
2018-08-28T12:36:40.116Z,29.02
2018-08-28T12:37:40.074Z,28.70
2018-08-28T12:38:39.998Z,28.52
2018-08-28T12:39:39.960Z,28.82
2018-08-28T12:40:39.924Z,29.13
2018-08-28T12:41:39.888Z,29.66
2018-08-28T12:42:39.877Z,29.95
2018-08-28T12:43:39.810Z,30.25
2018-08-28T12:44:39.772Z,30.46
2018-08-28T12:45:39.737Z,30.59
2018-08-28T12:46:39.698Z,30.70
2018-08-28T12:47:39.697Z,30.84
2018-08-28T12:48:39.624Z,31.00
2018-08-28T12:49:39.621Z,31.18
2018-08-28T12:50:39.548Z,30.92
2018-08-28T12:51:39.520Z,30.94